X  Close Metar Aviation Weather Data     ESNL Lycksele Airport
Temperature
14°C Temperature
8°C Dewpoint
67% Humidity



Wind
1 M/S
2 MPH
3 KM/H
2 KTS



Calm
North
Current Conditions

Partly Cloudy Partly Cloudy
Pressure 1014.92 (hPa) - 29.97 (inHg)
Visibility 6.2 (mile) - 10 (km)
Airport
Airport-code ESNL

Location: Lycksele Airport
Distance: 35 (km)

Metar:
ESNL 120950Z AUTO VRB02KT 9999 FEW046/// BKN052/// 14/08 Q1015

Time: 2021-05-12 11:50 CEST